sensor_id;sensor_type;location;lat;lon;timestamp;pressure;altitude;pressure_sealevel;temperature;humidity
75923;BME280;64602;47.542;19.090;2023-05-15T00:01:15;99718.53;;;12.43;97.87
75923;BME280;64602;47.542;19.090;2023-05-15T00:06:17;99696.25;;;12.40;97.75
75923;BME280;64602;47.542;19.090;2023-05-15T00:11:20;99686.75;;;12.38;97.75
75923;BME280;64602;47.542;19.090;2023-05-15T00:16:24;99701.13;;;12.44;97.95
75923;BME280;64602;47.542;19.090;2023-05-15T00:21:26;99683.75;;;12.34;97.97
75923;BME280;64602;47.542;19.090;2023-05-15T00:26:28;99682.38;;;12.37;98.06
75923;BME280;64602;47.542;19.090;2023-05-15T00:31:31;99692.16;;;12.43;98.09
75923;BME280;64602;47.542;19.090;2023-05-15T00:36:34;99710.91;;;12.45;98.01
75923;BME280;64602;47.542;19.090;2023-05-15T00:41:37;99733.50;;;12.45;97.86
75923;BME280;64602;47.542;19.090;2023-05-15T00:46:42;99717.69;;;12.47;97.64
75923;BME280;64602;47.542;19.090;2023-05-15T00:51:46;99715.50;;;12.49;97.52
75923;BME280;64602;47.542;19.090;2023-05-15T00:56:49;99702.69;;;12.50;97.37
75923;BME280;64602;47.542;19.090;2023-05-15T01:01:52;99699.16;;;12.49;97.07
75923;BME280;64602;47.542;19.090;2023-05-15T01:06:55;99689.44;;;12.43;97.06
75923;BME280;64602;47.542;19.090;2023-05-15T01:11:58;99690.19;;;12.49;97.16
75923;BME280;64602;47.542;19.090;2023-05-15T01:17:01;99676.88;;;12.47;97.40
75923;BME280;64602;47.542;19.090;2023-05-15T01:27:50;99667.66;;;12.43;97.64
75923;BME280;64602;47.542;19.090;2023-05-15T01:33:18;99669.84;;;12.41;97.80
75923;BME280;64602;47.542;19.090;2023-05-15T01:39:03;99654.62;;;12.35;97.92
75923;BME280;64602;47.542;19.090;2023-05-15T01:44:14;99660.31;;;12.44;98.09
75923;BME280;64602;47.542;19.090;2023-05-15T01:49:18;99657.81;;;12.47;98.04
75923;BME280;64602;47.542;19.090;2023-05-15T01:54:25;99647.75;;;12.48;97.98
75923;BME280;64602;47.542;19.090;2023-05-15T01:59:28;99610.25;;;12.39;97.87
75923;BME280;64602;47.542;19.090;2023-05-15T02:04:32;99626.03;;;12.37;97.87
75923;BME280;64602;47.542;19.090;2023-05-15T02:09:35;99616.84;;;12.33;97.67
75923;BME280;64602;47.542;19.090;2023-05-15T02:14:39;99629.88;;;12.36;97.80
75923;BME280;64602;47.542;19.090;2023-05-15T02:19:42;99626.06;;;12.32;97.74
75923;BME280;64602;47.542;19.090;2023-05-15T02:24:44;99648.09;;;12.36;97.48
75923;BME280;64602;47.542;19.090;2023-05-15T02:30:08;99650.50;;;12.43;97.35
75923;BME280;64602;47.542;19.090;2023-05-15T02:40:38;99670.41;;;12.33;96.98
75923;BME280;64602;47.542;19.090;2023-05-15T02:45:41;99695.16;;;12.36;96.97
75923;BME280;64602;47.542;19.090;2023-05-15T02:50:45;99676.09;;;12.42;97.19
75923;BME280;64602;47.542;19.090;2023-05-15T02:55:47;99671.47;;;12.42;97.25
75923;BME280;64602;47.542;19.090;2023-05-15T03:00:49;99669.00;;;12.46;97.15
75923;BME280;64602;47.542;19.090;2023-05-15T03:05:51;99669.53;;;12.48;97.23
75923;BME280;64602;47.542;19.090;2023-05-15T03:10:53;99649.16;;;12.40;97.38
75923;BME280;64602;47.542;19.090;2023-05-15T03:15:55;99654.31;;;12.42;97.74
75923;BME280;64602;47.542;19.090;2023-05-15T03:20:57;99662.25;;;12.38;98.23
75923;BME280;64602;47.542;19.090;2023-05-15T03:25:59;99634.50;;;12.36;98.27
75923;BME280;64602;47.542;19.090;2023-05-15T03:31:01;99625.69;;;12.49;98.23
75923;BME280;64602;47.542;19.090;2023-05-15T03:36:05;99623.28;;;12.48;98.23
75923;BME280;64602;47.542;19.090;2023-05-15T03:41:08;99607.16;;;12.51;98.25
75923;BME280;64602;47.542;19.090;2023-05-15T03:46:11;99588.66;;;12.53;98.08
75923;BME280;64602;47.542;19.090;2023-05-15T03:51:13;99602.84;;;12.50;98.04
75923;BME280;64602;47.542;19.090;2023-05-15T03:56:15;99593.88;;;12.45;98.01
75923;BME280;64602;47.542;19.090;2023-05-15T04:01:17;99580.50;;;12.53;98.04
75923;BME280;64602;47.542;19.090;2023-05-15T04:06:20;99592.25;;;12.44;98.16
75923;BME280;64602;47.542;19.090;2023-05-15T04:11:23;99575.91;;;12.49;98.06
75923;BME280;64602;47.542;19.090;2023-05-15T04:16:25;99584.78;;;12.59;98.18
75923;BME280;64602;47.542;19.090;2023-05-15T04:21:27;99563.62;;;12.51;97.95
75923;BME280;64602;47.542;19.090;2023-05-15T04:26:29;99564.34;;;12.62;98.01
75923;BME280;64602;47.542;19.090;2023-05-15T04:31:32;99581.16;;;12.69;98.09
75923;BME280;64602;47.542;19.090;2023-05-15T04:36:36;99588.25;;;12.70;97.96
75923;BME280;64602;47.542;19.090;2023-05-15T04:41:38;99574.56;;;12.75;97.86
75923;BME280;64602;47.542;19.090;2023-05-15T04:46:40;99575.38;;;12.76;97.40
75923;BME280;64602;47.542;19.090;2023-05-15T04:51:42;99592.19;;;12.83;97.34
75923;BME280;64602;47.542;19.090;2023-05-15T04:56:44;99581.87;;;12.80;97.15
75923;BME280;64602;47.542;19.090;2023-05-15T05:01:47;99591.97;;;12.79;96.94
75923;BME280;64602;47.542;19.090;2023-05-15T05:06:49;99635.19;;;12.86;96.91
75923;BME280;64602;47.542;19.090;2023-05-15T05:11:51;99645.00;;;12.87;96.45
75923;BME280;64602;47.542;19.090;2023-05-15T05:16:53;99643.63;;;12.90;96.37
75923;BME280;64602;47.542;19.090;2023-05-15T05:21:56;99625.88;;;12.92;96.45
75923;BME280;64602;47.542;19.090;2023-05-15T05:26:59;99646.62;;;12.88;96.29
75923;BME280;64602;47.542;19.090;2023-05-15T05:32:01;99660.44;;;12.97;95.95
75923;BME280;64602;47.542;19.090;2023-05-15T05:37:03;99652.53;;;12.95;95.66
75923;BME280;64602;47.542;19.090;2023-05-15T05:42:05;99652.28;;;12.97;96.04
75923;BME280;64602;47.542;19.090;2023-05-15T05:47:07;99635.06;;;13.01;96.14
75923;BME280;64602;47.542;19.090;2023-05-15T05:52:10;99633.44;;;13.00;96.31
75923;BME280;64602;47.542;19.090;2023-05-15T05:57:12;99654.25;;;13.20;96.06
75923;BME280;64602;47.542;19.090;2023-05-15T06:02:15;99652.28;;;13.26;95.92
75923;BME280;64602;47.542;19.090;2023-05-15T06:07:17;99666.34;;;13.38;95.72
75923;BME280;64602;47.542;19.090;2023-05-15T06:12:19;99655.16;;;13.64;95.10
75923;BME280;64602;47.542;19.090;2023-05-15T06:17:23;99652.72;;;13.86;94.41
75923;BME280;64602;47.542;19.090;2023-05-15T06:22:26;99665.63;;;14.00;93.48
75923;BME280;64602;47.542;19.090;2023-05-15T06:27:28;99675.53;;;14.15;92.92
75923;BME280;64602;47.542;19.090;2023-05-15T06:32:30;99666.91;;;14.07;91.82
75923;BME280;64602;47.542;19.090;2023-05-15T06:37:35;99684.09;;;14.27;91.75
75923;BME280;64602;47.542;19.090;2023-05-15T06:42:38;99682.50;;;14.26;90.85
75923;BME280;64602;47.542;19.090;2023-05-15T06:47:40;99676.16;;;14.30;91.00
75923;BME280;64602;47.542;19.090;2023-05-15T06:52:42;99649.81;;;14.40;90.80
75923;BME280;64602;47.542;19.090;2023-05-15T06:57:44;99654.41;;;14.63;90.20
75923;BME280;64602;47.542;19.090;2023-05-15T07:02:47;99648.09;;;14.82;88.77
75923;BME280;64602;47.542;19.090;2023-05-15T07:07:49;99646.56;;;15.08;88.06
75923;BME280;64602;47.542;19.090;2023-05-15T07:12:51;99659.38;;;15.27;87.74
75923;BME280;64602;47.542;19.090;2023-05-15T07:17:53;99667.47;;;15.32;85.91
75923;BME280;64602;47.542;19.090;2023-05-15T07:22:55;99658.47;;;15.45;85.39
75923;BME280;64602;47.542;19.090;2023-05-15T07:27:58;99668.13;;;15.70;84.16
75923;BME280;64602;47.542;19.090;2023-05-15T07:33:00;99685.72;;;15.36;84.06
75923;BME280;64602;47.542;19.090;2023-05-15T07:38:02;99691.41;;;15.07;84.73
75923;BME280;64602;47.542;19.090;2023-05-15T07:43:05;99686.69;;;14.94;84.57
75923;BME280;64602;47.542;19.090;2023-05-15T07:48:18;99674.16;;;14.93;86.36
75923;BME280;64602;47.542;19.090;2023-05-15T07:53:20;99658.19;;;15.00;87.21
75923;BME280;64602;47.542;19.090;2023-05-15T07:58:22;99650.41;;;15.07;87.35
75923;BME280;64602;47.542;19.090;2023-05-15T08:03:25;99646.09;;;15.34;86.60
75923;BME280;64602;47.542;19.090;2023-05-15T08:08:27;99678.91;;;15.48;85.27
75923;BME280;64602;47.542;19.090;2023-05-15T08:13:29;99693.22;;;15.45;84.08
75923;BME280;64602;47.542;19.090;2023-05-15T08:18:31;99674.22;;;15.95;83.63
75923;BME280;64602;47.542;19.090;2023-05-15T08:23:33;99696.75;;;16.42;79.15
75923;BME280;64602;47.542;19.090;2023-05-15T08:28:36;99690.66;;;16.45;81.16
75923;BME280;64602;47.542;19.090;2023-05-15T08:33:38;99701.56;;;16.59;81.70
75923;BME280;64602;47.542;19.090;2023-05-15T08:38:40;99699.19;;;16.43;79.12
75923;BME280;64602;47.542;19.090;2023-05-15T08:43:43;99694.59;;;16.53;79.68
75923;BME280;64602;47.542;19.090;2023-05-15T08:48:45;99698.28;;;16.71;78.54
75923;BME280;64602;47.542;19.090;2023-05-15T08:53:48;99692.28;;;17.05;78.14
75923;BME280;64602;47.542;19.090;2023-05-15T08:58:51;99680.50;;;17.67;76.22
75923;BME280;64602;47.542;19.090;2023-05-15T09:03:53;99673.13;;;18.25;75.94
75923;BME280;64602;47.542;19.090;2023-05-15T09:08:56;99666.66;;;18.29;72.19
75923;BME280;64602;47.542;19.090;2023-05-15T09:13:59;99668.59;;;18.20;73.73
75923;BME280;64602;47.542;19.090;2023-05-15T09:19:01;99688.66;;;18.38;71.45
75923;BME280;64602;47.542;19.090;2023-05-15T09:24:23;99686.88;;;18.42;71.32
75923;BME280;64602;47.542;19.090;2023-05-15T09:29:26;99705.25;;;18.07;72.10
75923;BME280;64602;47.542;19.090;2023-05-15T09:34:30;99706.41;;;18.23;71.56
75923;BME280;64602;47.542;19.090;2023-05-15T09:39:33;99711.91;;;18.23;69.13
75923;BME280;64602;47.542;19.090;2023-05-15T09:44:42;99721.97;;;18.63;67.86
75923;BME280;64602;47.542;19.090;2023-05-15T09:49:44;99725.66;;;19.36;64.98
75923;BME280;64602;47.542;19.090;2023-05-15T09:54:48;99719.69;;;19.34;63.76
75923;BME280;64602;47.542;19.090;2023-05-15T09:59:51;99727.50;;;18.80;64.80
75923;BME280;64602;47.542;19.090;2023-05-15T10:04:54;99724.41;;;18.55;66.46
75923;BME280;64602;47.542;19.090;2023-05-15T10:09:58;99730.44;;;18.84;66.21
75923;BME280;64602;47.542;19.090;2023-05-15T10:15:02;99718.75;;;18.61;68.14
75923;BME280;64602;47.542;19.090;2023-05-15T10:20:05;99716.78;;;18.61;68.55
75923;BME280;64602;47.542;19.090;2023-05-15T10:25:49;99722.81;;;18.89;67.00
75923;BME280;64602;47.542;19.090;2023-05-15T10:30:42;99719.53;;;19.31;67.81
75923;BME280;64602;47.542;19.090;2023-05-15T10:35:45;99727.50;;;19.06;68.01
75923;BME280;64602;47.542;19.090;2023-05-15T10:40:51;99728.47;;;18.93;68.43
75923;BME280;64602;47.542;19.090;2023-05-15T10:46:04;99730.44;;;19.01;67.82
75923;BME280;64602;47.542;19.090;2023-05-15T10:51:16;99727.75;;;19.57;64.50
75923;BME280;64602;47.542;19.090;2023-05-15T10:56:19;99723.09;;;20.25;60.61
75923;BME280;64602;47.542;19.090;2023-05-15T11:06:28;99727.88;;;20.37;59.97
75923;BME280;64602;47.542;19.090;2023-05-15T11:27:11;99723.66;;;21.69;56.54
75923;BME280;64602;47.542;19.090;2023-05-15T11:32:53;99708.84;;;21.86;56.23
75923;BME280;64602;47.542;19.090;2023-05-15T11:37:58;99708.12;;;21.65;58.85
75923;BME280;64602;47.542;19.090;2023-05-15T11:43:05;99708.69;;;20.91;59.77
75923;BME280;64602;47.542;19.090;2023-05-15T11:48:12;99693.12;;;20.45;60.26
75923;BME280;64602;47.542;19.090;2023-05-15T11:53:15;99701.44;;;19.85;60.91
75923;BME280;64602;47.542;19.090;2023-05-15T11:58:20;99695.22;;;19.41;61.84
75923;BME280;64602;47.542;19.090;2023-05-15T12:03:25;99695.44;;;19.28;62.84
75923;BME280;64602;47.542;19.090;2023-05-15T12:08:32;99705.16;;;19.08;64.60
75923;BME280;64602;47.542;19.090;2023-05-15T12:13:34;99700.66;;;18.86;64.75
75923;BME280;64602;47.542;19.090;2023-05-15T12:18:36;99692.91;;;18.88;64.85
75923;BME280;64602;47.542;19.090;2023-05-15T12:23:39;99702.94;;;18.84;64.71
75923;BME280;64602;47.542;19.090;2023-05-15T12:28:41;99709.22;;;19.10;63.86
75923;BME280;64602;47.542;19.090;2023-05-15T12:33:44;99711.97;;;19.19;64.22
75923;BME280;64602;47.542;19.090;2023-05-15T12:38:47;99703.25;;;18.99;64.35
75923;BME280;64602;47.542;19.090;2023-05-15T12:43:49;99716.19;;;18.99;65.05
75923;BME280;64602;47.542;19.090;2023-05-15T12:48:53;99710.97;;;18.71;65.42
75923;BME280;64602;47.542;19.090;2023-05-15T12:53:55;99712.44;;;18.51;66.22
75923;BME280;64602;47.542;19.090;2023-05-15T12:59:00;99716.31;;;18.59;67.58
75923;BME280;64602;47.542;19.090;2023-05-15T13:04:02;99699.19;;;18.62;67.81
75923;BME280;64602;47.542;19.090;2023-05-15T13:09:04;99703.22;;;18.73;65.98
75923;BME280;64602;47.542;19.090;2023-05-15T13:14:08;99696.78;;;18.87;65.81
75923;BME280;64602;47.542;19.090;2023-05-15T13:19:17;99699.06;;;18.85;65.57
75923;BME280;64602;47.542;19.090;2023-05-15T13:24:20;99707.09;;;18.64;66.42
75923;BME280;64602;47.542;19.090;2023-05-15T13:29:22;99682.03;;;18.39;67.36
75923;BME280;64602;47.542;19.090;2023-05-15T13:34:24;99674.44;;;18.36;68.11
75923;BME280;64602;47.542;19.090;2023-05-15T13:39:26;99685.12;;;18.37;68.34
75923;BME280;64602;47.542;19.090;2023-05-15T13:44:29;99679.28;;;18.30;67.06
75923;BME280;64602;47.542;19.090;2023-05-15T13:49:31;99673.13;;;18.16;65.90
75923;BME280;64602;47.542;19.090;2023-05-15T13:54:33;99672.28;;;18.07;66.37
75923;BME280;64602;47.542;19.090;2023-05-15T13:59:35;99677.94;;;18.02;66.06
75923;BME280;64602;47.542;19.090;2023-05-15T14:04:37;99673.84;;;17.90;68.20
75923;BME280;64602;47.542;19.090;2023-05-15T14:09:39;99678.00;;;17.79;66.40
75923;BME280;64602;47.542;19.090;2023-05-15T14:14:44;99686.84;;;17.76;66.54
75923;BME280;64602;47.542;19.090;2023-05-15T14:19:46;99673.41;;;17.66;66.31
75923;BME280;64602;47.542;19.090;2023-05-15T14:24:48;99681.66;;;17.66;67.73
75923;BME280;64602;47.542;19.090;2023-05-15T14:29:50;99685.34;;;17.61;67.09
75923;BME280;64602;47.542;19.090;2023-05-15T14:34:52;99672.72;;;17.51;66.81
75923;BME280;64602;47.542;19.090;2023-05-15T14:39:54;99687.72;;;17.54;67.62
75923;BME280;64602;47.542;19.090;2023-05-15T14:44:57;99686.88;;;17.45;68.49
75923;BME280;64602;47.542;19.090;2023-05-15T14:49:59;99699.78;;;17.44;67.04
75923;BME280;64602;47.542;19.090;2023-05-15T14:55:01;99700.22;;;17.38;69.41
75923;BME280;64602;47.542;19.090;2023-05-15T15:00:07;99707.16;;;17.35;69.24
75923;BME280;64602;47.542;19.090;2023-05-15T15:05:10;99703.75;;;17.29;70.46
75923;BME280;64602;47.542;19.090;2023-05-15T15:10:12;99705.47;;;17.25;68.09
75923;BME280;64602;47.542;19.090;2023-05-15T15:15:15;99713.91;;;17.29;69.24
75923;BME280;64602;47.542;19.090;2023-05-15T15:20:18;99711.91;;;17.21;70.10
75923;BME280;64602;47.542;19.090;2023-05-15T15:25:21;99710.28;;;17.20;67.61
75923;BME280;64602;47.542;19.090;2023-05-15T15:30:24;99718.59;;;17.28;66.81
75923;BME280;64602;47.542;19.090;2023-05-15T15:35:26;99737.78;;;17.60;65.91
75923;BME280;64602;47.542;19.090;2023-05-15T15:40:28;99742.37;;;17.73;65.92
75923;BME280;64602;47.542;19.090;2023-05-15T15:45:31;99739.38;;;17.83;65.61
75923;BME280;64602;47.542;19.090;2023-05-15T15:50:33;99733.25;;;17.86;64.87
75923;BME280;64602;47.542;19.090;2023-05-15T15:55:36;99737.66;;;17.96;64.83
75923;BME280;64602;47.542;19.090;2023-05-15T16:00:38;99743.47;;;17.94;63.92
75923;BME280;64602;47.542;19.090;2023-05-15T16:05:40;99732.81;;;17.93;64.14
75923;BME280;64602;47.542;19.090;2023-05-15T16:10:42;99739.75;;;17.90;64.91
75923;BME280;64602;47.542;19.090;2023-05-15T16:15:45;99750.72;;;17.90;65.08
75923;BME280;64602;47.542;19.090;2023-05-15T16:20:47;99735.13;;;17.77;65.75
75923;BME280;64602;47.542;19.090;2023-05-15T16:25:49;99735.72;;;17.65;65.46
75923;BME280;64602;47.542;19.090;2023-05-15T16:30:52;99735.50;;;17.53;65.09
75923;BME280;64602;47.542;19.090;2023-05-15T16:35:55;99745.91;;;17.42;65.32
75923;BME280;64602;47.542;19.090;2023-05-15T16:40:57;99760.25;;;17.39;65.44
75923;BME280;64602;47.542;19.090;2023-05-15T16:45:59;99760.53;;;17.29;66.67
75923;BME280;64602;47.542;19.090;2023-05-15T16:51:01;99765.34;;;17.23;65.50
75923;BME280;64602;47.542;19.090;2023-05-15T16:56:03;99771.38;;;17.12;65.69
75923;BME280;64602;47.542;19.090;2023-05-15T17:01:06;99767.31;;;17.09;67.70
75923;BME280;64602;47.542;19.090;2023-05-15T17:06:08;99775.97;;;17.02;66.76
75923;BME280;64602;47.542;19.090;2023-05-15T17:11:10;99776.91;;;16.98;67.07
75923;BME280;64602;47.542;19.090;2023-05-15T17:16:12;99778.88;;;16.83;66.95
75923;BME280;64602;47.542;19.090;2023-05-15T17:21:15;99777.44;;;16.72;66.36
75923;BME280;64602;47.542;19.090;2023-05-15T17:26:17;99781.94;;;16.68;65.29
75923;BME280;64602;47.542;19.090;2023-05-15T17:31:19;99776.75;;;16.53;65.73
75923;BME280;64602;47.542;19.090;2023-05-15T17:36:22;99789.66;;;16.52;67.32
75923;BME280;64602;47.542;19.090;2023-05-15T17:41:24;99792.09;;;16.40;66.40
75923;BME280;64602;47.542;19.090;2023-05-15T17:46:26;99815.12;;;16.39;66.10
75923;BME280;64602;47.542;19.090;2023-05-15T17:51:29;99805.78;;;16.26;67.15
75923;BME280;64602;47.542;19.090;2023-05-15T17:56:31;99805.09;;;16.20;69.68
75923;BME280;64602;47.542;19.090;2023-05-15T18:01:33;99815.84;;;16.17;70.18
75923;BME280;64602;47.542;19.090;2023-05-15T18:06:35;99808.75;;;16.02;71.18
75923;BME280;64602;47.542;19.090;2023-05-15T18:11:38;99797.38;;;15.95;71.32
75923;BME280;64602;47.542;19.090;2023-05-15T18:16:40;99805.06;;;15.93;71.08
75923;BME280;64602;47.542;19.090;2023-05-15T18:21:42;99804.13;;;15.84;72.04
75923;BME280;64602;47.542;19.090;2023-05-15T18:26:44;99808.00;;;15.83;71.90
75923;BME280;64602;47.542;19.090;2023-05-15T18:31:46;99806.00;;;15.69;71.12
75923;BME280;64602;47.542;19.090;2023-05-15T18:36:48;99816.50;;;15.62;72.67
75923;BME280;64602;47.542;19.090;2023-05-15T18:41:53;99826.13;;;15.59;73.03
75923;BME280;64602;47.542;19.090;2023-05-15T18:46:55;99831.41;;;15.56;73.54
75923;BME280;64602;47.542;19.090;2023-05-15T18:51:57;99847.66;;;15.47;73.99
75923;BME280;64602;47.542;19.090;2023-05-15T18:56:59;99856.56;;;15.39;74.92
75923;BME280;64602;47.542;19.090;2023-05-15T19:02:02;99861.66;;;15.27;75.69
75923;BME280;64602;47.542;19.090;2023-05-15T19:07:04;99867.41;;;15.25;76.17
75923;BME280;64602;47.542;19.090;2023-05-15T19:12:07;99863.19;;;15.14;76.19
75923;BME280;64602;47.542;19.090;2023-05-15T19:17:09;99862.66;;;15.12;77.25
75923;BME280;64602;47.542;19.090;2023-05-15T19:22:11;99875.59;;;15.06;78.09
75923;BME280;64602;47.542;19.090;2023-05-15T19:27:14;99861.56;;;14.94;78.33
75923;BME280;64602;47.542;19.090;2023-05-15T19:32:16;99860.06;;;14.83;79.24
75923;BME280;64602;47.542;19.090;2023-05-15T19:37:18;99876.00;;;14.75;79.48
75923;BME280;64602;47.542;19.090;2023-05-15T19:42:20;99892.91;;;14.78;79.63
75923;BME280;64602;47.542;19.090;2023-05-15T19:47:22;99885.31;;;14.74;80.09
75923;BME280;64602;47.542;19.090;2023-05-15T19:52:25;99872.37;;;14.61;80.77
75923;BME280;64602;47.542;19.090;2023-05-15T19:57:27;99881.00;;;14.68;80.76
75923;BME280;64602;47.542;19.090;2023-05-15T20:02:29;99878.66;;;14.62;80.55
75923;BME280;64602;47.542;19.090;2023-05-15T20:07:31;99861.44;;;14.61;80.30
75923;BME280;64602;47.542;19.090;2023-05-15T20:12:33;99869.06;;;14.64;80.98
75923;BME280;64602;47.542;19.090;2023-05-15T20:17:37;99865.19;;;14.65;81.19
75923;BME280;64602;47.542;19.090;2023-05-15T20:22:43;99873.25;;;14.57;81.94
75923;BME280;64602;47.542;19.090;2023-05-15T20:27:45;99876.00;;;14.51;80.88
75923;BME280;64602;47.542;19.090;2023-05-15T20:32:47;99897.22;;;14.60;79.77
75923;BME280;64602;47.542;19.090;2023-05-15T20:37:49;99900.56;;;14.57;79.97
75923;BME280;64602;47.542;19.090;2023-05-15T20:42:52;99897.53;;;14.53;80.37
75923;BME280;64602;47.542;19.090;2023-05-15T20:47:54;99915.31;;;14.50;80.28
75923;BME280;64602;47.542;19.090;2023-05-15T20:52:57;99914.78;;;14.48;80.37
75923;BME280;64602;47.542;19.090;2023-05-15T20:57:59;99913.78;;;14.44;80.47
75923;BME280;64602;47.542;19.090;2023-05-15T21:03:01;99898.78;;;14.42;80.60
75923;BME280;64602;47.542;19.090;2023-05-15T21:08:03;99899.88;;;14.41;82.00
75923;BME280;64602;47.542;19.090;2023-05-15T21:13:05;99897.41;;;14.39;81.66
75923;BME280;64602;47.542;19.090;2023-05-15T21:18:08;99910.25;;;14.39;82.08
75923;BME280;64602;47.542;19.090;2023-05-15T21:23:10;99908.38;;;14.34;82.17
75923;BME280;64602;47.542;19.090;2023-05-15T21:28:12;99911.47;;;14.27;82.65
75923;BME280;64602;47.542;19.090;2023-05-15T21:33:14;99915.59;;;14.25;82.87
75923;BME280;64602;47.542;19.090;2023-05-15T21:38:16;99929.25;;;14.25;82.59
75923;BME280;64602;47.542;19.090;2023-05-15T21:43:19;99920.47;;;14.28;82.84
75923;BME280;64602;47.542;19.090;2023-05-15T21:48:21;99899.03;;;14.16;82.62
75923;BME280;64602;47.542;19.090;2023-05-15T21:53:24;99894.97;;;14.14;82.66
75923;BME280;64602;47.542;19.090;2023-05-15T21:58:27;99905.34;;;14.11;81.70
75923;BME280;64602;47.542;19.090;2023-05-15T22:03:29;99928.78;;;14.18;82.01
75923;BME280;64602;47.542;19.090;2023-05-15T22:08:31;99937.47;;;14.20;82.37
75923;BME280;64602;47.542;19.090;2023-05-15T22:13:34;99929.31;;;14.15;82.66
75923;BME280;64602;47.542;19.090;2023-05-15T22:18:36;99942.97;;;14.15;82.81
75923;BME280;64602;47.542;19.090;2023-05-15T22:23:38;99960.94;;;14.21;82.84
75923;BME280;64602;47.542;19.090;2023-05-15T22:28:41;99962.91;;;14.15;83.03
75923;BME280;64602;47.542;19.090;2023-05-15T22:33:43;99972.19;;;14.14;83.32
75923;BME280;64602;47.542;19.090;2023-05-15T22:38:45;99979.78;;;14.17;83.54
75923;BME280;64602;47.542;19.090;2023-05-15T22:43:47;99974.94;;;14.09;83.48
75923;BME280;64602;47.542;19.090;2023-05-15T22:48:50;99975.75;;;14.09;83.69
75923;BME280;64602;47.542;19.090;2023-05-15T22:53:53;99970.06;;;14.06;84.12
75923;BME280;64602;47.542;19.090;2023-05-15T22:58:55;99961.63;;;14.02;84.32
75923;BME280;64602;47.542;19.090;2023-05-15T23:03:58;99955.69;;;13.95;84.79
75923;BME280;64602;47.542;19.090;2023-05-15T23:09:00;99944.31;;;13.83;85.34
75923;BME280;64602;47.542;19.090;2023-05-15T23:14:02;99934.00;;;13.80;85.71
75923;BME280;64602;47.542;19.090;2023-05-15T23:19:04;99935.59;;;13.86;86.03
75923;BME280;64602;47.542;19.090;2023-05-15T23:24:07;99934.78;;;13.80;85.78
75923;BME280;64602;47.542;19.090;2023-05-15T23:29:09;99932.87;;;13.81;86.04
75923;BME280;64602;47.542;19.090;2023-05-15T23:34:11;99935.34;;;13.82;85.98
75923;BME280;64602;47.542;19.090;2023-05-15T23:39:13;99933.19;;;13.79;86.25
75923;BME280;64602;47.542;19.090;2023-05-15T23:44:16;99928.25;;;13.81;85.08
75923;BME280;64602;47.542;19.090;2023-05-15T23:49:18;99924.19;;;13.79;85.80
75923;BME280;64602;47.542;19.090;2023-05-15T23:54:21;99901.84;;;13.77;86.39
75923;BME280;64602;47.542;19.090;2023-05-15T23:59:23;99895.91;;;13.70;86.56
